sensor_id;sensor_type;location;lat;lon;timestamp;temperature;humidity
39621;DHT22;25309;48.686;9.170;2023-02-28T00:01:11;-0.50;92.50
39621;DHT22;25309;48.686;9.170;2023-02-28T00:03:38;-0.50;92.60
39621;DHT22;25309;48.686;9.170;2023-02-28T00:06:07;-0.50;92.60
39621;DHT22;25309;48.686;9.170;2023-02-28T00:08:34;-0.50;92.60
39621;DHT22;25309;48.686;9.170;2023-02-28T00:11:02;-0.50;92.70
39621;DHT22;25309;48.686;9.170;2023-02-28T00:13:31;-0.50;92.80
39621;DHT22;25309;48.686;9.170;2023-02-28T00:15:59;-0.50;92.80
39621;DHT22;25309;48.686;9.170;2023-02-28T00:18:27;-0.50;93.10
39621;DHT22;25309;48.686;9.170;2023-02-28T00:20:57;-0.50;92.80
39621;DHT22;25309;48.686;9.170;2023-02-28T00:23:24;-0.50;92.90
39621;DHT22;25309;48.686;9.170;2023-02-28T00:25:51;-0.50;93.00
39621;DHT22;25309;48.686;9.170;2023-02-28T00:28:18;-0.60;93.00
39621;DHT22;25309;48.686;9.170;2023-02-28T00:30:47;-0.60;93.10
39621;DHT22;25309;48.686;9.170;2023-02-28T00:33:14;-0.60;93.20
39621;DHT22;25309;48.686;9.170;2023-02-28T00:35:41;-0.60;93.20
39621;DHT22;25309;48.686;9.170;2023-02-28T00:38:08;-0.70;93.30
39621;DHT22;25309;48.686;9.170;2023-02-28T00:40:35;-0.70;93.30
39621;DHT22;25309;48.686;9.170;2023-02-28T00:43:03;-0.70;93.40
39621;DHT22;25309;48.686;9.170;2023-02-28T00:45:30;-0.70;93.40
39621;DHT22;25309;48.686;9.170;2023-02-28T00:47:58;-0.70;93.40
39621;DHT22;25309;48.686;9.170;2023-02-28T00:50:26;-0.70;93.40
39621;DHT22;25309;48.686;9.170;2023-02-28T00:52:53;-0.70;93.40
39621;DHT22;25309;48.686;9.170;2023-02-28T00:55:19;-0.70;93.40
39621;DHT22;25309;48.686;9.170;2023-02-28T00:57:47;-0.70;93.40
39621;DHT22;25309;48.686;9.170;2023-02-28T01:00:15;-0.70;93.40
39621;DHT22;25309;48.686;9.170;2023-02-28T01:02:42;-0.70;93.50
39621;DHT22;25309;48.686;9.170;2023-02-28T01:05:10;-0.70;93.50
39621;DHT22;25309;48.686;9.170;2023-02-28T01:07:37;-0.70;93.50
39621;DHT22;25309;48.686;9.170;2023-02-28T01:10:05;-0.70;93.60
39621;DHT22;25309;48.686;9.170;2023-02-28T01:12:32;-0.80;93.60
39621;DHT22;25309;48.686;9.170;2023-02-28T01:14:59;-0.80;93.70
39621;DHT22;25309;48.686;9.170;2023-02-28T01:17:26;-0.80;93.80
39621;DHT22;25309;48.686;9.170;2023-02-28T01:19:53;-0.80;93.80
39621;DHT22;25309;48.686;9.170;2023-02-28T01:22:22;-0.90;93.90
39621;DHT22;25309;48.686;9.170;2023-02-28T01:24:49;-0.90;94.00
39621;DHT22;25309;48.686;9.170;2023-02-28T01:27:16;-0.90;94.10
39621;DHT22;25309;48.686;9.170;2023-02-28T01:29:43;-0.90;94.20
39621;DHT22;25309;48.686;9.170;2023-02-28T01:32:10;-0.90;94.30
39621;DHT22;25309;48.686;9.170;2023-02-28T01:34:37;-1.00;94.30
39621;DHT22;25309;48.686;9.170;2023-02-28T01:37:04;-0.90;94.40
39621;DHT22;25309;48.686;9.170;2023-02-28T01:39:32;-1.00;94.50
39621;DHT22;25309;48.686;9.170;2023-02-28T01:41:59;-1.00;94.50
39621;DHT22;25309;48.686;9.170;2023-02-28T01:45:02;-1.00;94.60
39621;DHT22;25309;48.686;9.170;2023-02-28T01:47:32;-0.90;94.60
39621;DHT22;25309;48.686;9.170;2023-02-28T01:50:04;-0.90;94.70
39621;DHT22;25309;48.686;9.170;2023-02-28T01:52:32;-0.90;94.70
39621;DHT22;25309;48.686;9.170;2023-02-28T01:55:02;-0.90;94.70
39621;DHT22;25309;48.686;9.170;2023-02-28T01:57:35;-0.90;94.70
39621;DHT22;25309;48.686;9.170;2023-02-28T02:00:07;-0.90;95.20
39621;DHT22;25309;48.686;9.170;2023-02-28T02:02:39;-1.00;94.90
39621;DHT22;25309;48.686;9.170;2023-02-28T02:05:10;-1.00;94.90
39621;DHT22;25309;48.686;9.170;2023-02-28T02:07:39;-1.00;95.00
39621;DHT22;25309;48.686;9.170;2023-02-28T02:10:12;-1.00;95.00
39621;DHT22;25309;48.686;9.170;2023-02-28T02:13:08;-1.00;95.00
39621;DHT22;25309;48.686;9.170;2023-02-28T02:15:40;-1.00;95.10
39621;DHT22;25309;48.686;9.170;2023-02-28T02:18:16;-1.00;95.20
39621;DHT22;25309;48.686;9.170;2023-02-28T02:21:09;-1.00;95.20
39621;DHT22;25309;48.686;9.170;2023-02-28T02:24:03;-1.00;95.40
39621;DHT22;25309;48.686;9.170;2023-02-28T02:26:52;-1.00;95.40
39621;DHT22;25309;48.686;9.170;2023-02-28T02:32:33;-1.00;95.60
39621;DHT22;25309;48.686;9.170;2023-02-28T02:35:12;-1.00;95.50
39621;DHT22;25309;48.686;9.170;2023-02-28T02:37:45;-1.00;95.60
39621;DHT22;25309;48.686;9.170;2023-02-28T02:40:16;-0.90;95.60
39621;DHT22;25309;48.686;9.170;2023-02-28T02:42:50;-0.90;95.70
39621;DHT22;25309;48.686;9.170;2023-02-28T02:45:22;-0.90;95.70
39621;DHT22;25309;48.686;9.170;2023-02-28T02:47:50;-0.90;95.80
39621;DHT22;25309;48.686;9.170;2023-02-28T02:50:24;-0.90;95.70
39621;DHT22;25309;48.686;9.170;2023-02-28T02:53:00;-0.90;95.80
39621;DHT22;25309;48.686;9.170;2023-02-28T02:55:32;-0.90;95.80
39621;DHT22;25309;48.686;9.170;2023-02-28T02:58:03;-0.80;95.90
39621;DHT22;25309;48.686;9.170;2023-02-28T03:00:34;-0.80;95.90
39621;DHT22;25309;48.686;9.170;2023-02-28T03:03:02;-0.90;95.90
39621;DHT22;25309;48.686;9.170;2023-02-28T03:05:35;-0.90;96.00
39621;DHT22;25309;48.686;9.170;2023-02-28T03:08:05;-0.90;95.90
39621;DHT22;25309;48.686;9.170;2023-02-28T03:10:36;-0.80;96.00
39621;DHT22;25309;48.686;9.170;2023-02-28T03:13:31;-0.80;96.00
39621;DHT22;25309;48.686;9.170;2023-02-28T03:16:17;-0.80;96.40
39621;DHT22;25309;48.686;9.170;2023-02-28T03:18:56;-0.80;96.00
39621;DHT22;25309;48.686;9.170;2023-02-28T03:21:29;-0.80;96.00
39621;DHT22;25309;48.686;9.170;2023-02-28T03:24:03;-0.80;96.00
39621;DHT22;25309;48.686;9.170;2023-02-28T03:26:33;-0.80;96.10
39621;DHT22;25309;48.686;9.170;2023-02-28T03:29:05;-0.80;96.10
39621;DHT22;25309;48.686;9.170;2023-02-28T03:31:38;-0.80;96.20
39621;DHT22;25309;48.686;9.170;2023-02-28T03:34:10;-0.80;96.20
39621;DHT22;25309;48.686;9.170;2023-02-28T03:36:43;-0.80;96.20
39621;DHT22;25309;48.686;9.170;2023-02-28T03:39:14;-0.70;96.30
39621;DHT22;25309;48.686;9.170;2023-02-28T03:41:44;-0.70;96.20
39621;DHT22;25309;48.686;9.170;2023-02-28T03:44:17;-0.70;96.40
39621;DHT22;25309;48.686;9.170;2023-02-28T03:46:49;-0.80;96.40
39621;DHT22;25309;48.686;9.170;2023-02-28T03:49:21;-0.70;96.50
39621;DHT22;25309;48.686;9.170;2023-02-28T03:51:51;-0.70;96.50
39621;DHT22;25309;48.686;9.170;2023-02-28T03:54:21;-0.70;96.50
39621;DHT22;25309;48.686;9.170;2023-02-28T03:56:55;-0.70;96.50
39621;DHT22;25309;48.686;9.170;2023-02-28T03:59:27;-0.60;96.50
39621;DHT22;25309;48.686;9.170;2023-02-28T04:01:57;-0.60;96.50
39621;DHT22;25309;48.686;9.170;2023-02-28T04:04:25;-0.60;96.60
39621;DHT22;25309;48.686;9.170;2023-02-28T04:07:01;-0.60;96.60
39621;DHT22;25309;48.686;9.170;2023-02-28T04:09:29;-0.60;96.50
39621;DHT22;25309;48.686;9.170;2023-02-28T04:11:56;-0.50;96.60
39621;DHT22;25309;48.686;9.170;2023-02-28T04:14:23;-0.50;96.60
39621;DHT22;25309;48.686;9.170;2023-02-28T04:16:50;-0.60;96.70
39621;DHT22;25309;48.686;9.170;2023-02-28T04:19:18;-0.60;96.60
39621;DHT22;25309;48.686;9.170;2023-02-28T04:21:46;-0.60;96.70
39621;DHT22;25309;48.686;9.170;2023-02-28T04:24:16;-0.60;96.80
39621;DHT22;25309;48.686;9.170;2023-02-28T04:26:46;-0.60;96.90
39621;DHT22;25309;48.686;9.170;2023-02-28T04:29:17;-0.60;97.00
39621;DHT22;25309;48.686;9.170;2023-02-28T04:31:44;-0.60;97.00
39621;DHT22;25309;48.686;9.170;2023-02-28T04:34:11;-0.60;97.00
39621;DHT22;25309;48.686;9.170;2023-02-28T04:36:39;-0.60;97.00
39621;DHT22;25309;48.686;9.170;2023-02-28T04:39:06;-0.60;97.00
39621;DHT22;25309;48.686;9.170;2023-02-28T04:41:34;-0.60;96.90
39621;DHT22;25309;48.686;9.170;2023-02-28T04:44:01;-0.60;97.00
39621;DHT22;25309;48.686;9.170;2023-02-28T04:46:28;-0.60;97.00
39621;DHT22;25309;48.686;9.170;2023-02-28T04:48:55;-0.60;97.00
39621;DHT22;25309;48.686;9.170;2023-02-28T04:51:22;-0.60;97.10
39621;DHT22;25309;48.686;9.170;2023-02-28T04:53:49;-0.70;97.10
39621;DHT22;25309;48.686;9.170;2023-02-28T04:56:17;-0.60;97.20
39621;DHT22;25309;48.686;9.170;2023-02-28T04:58:46;-0.70;97.30
39621;DHT22;25309;48.686;9.170;2023-02-28T05:01:19;-0.70;97.30
39621;DHT22;25309;48.686;9.170;2023-02-28T05:03:47;-0.60;98.00
39621;DHT22;25309;48.686;9.170;2023-02-28T05:06:14;-0.60;97.90
39621;DHT22;25309;48.686;9.170;2023-02-28T05:08:41;-0.50;97.60
39621;DHT22;25309;48.686;9.170;2023-02-28T05:11:15;-0.50;97.40
39621;DHT22;25309;48.686;9.170;2023-02-28T05:13:42;-0.50;97.30
39621;DHT22;25309;48.686;9.170;2023-02-28T05:16:10;-0.50;97.30
39621;DHT22;25309;48.686;9.170;2023-02-28T05:18:37;-0.50;97.30
39621;DHT22;25309;48.686;9.170;2023-02-28T05:21:04;-0.50;97.40
39621;DHT22;25309;48.686;9.170;2023-02-28T05:23:40;-0.50;97.40
39621;DHT22;25309;48.686;9.170;2023-02-28T05:30:06;-0.50;97.70
39621;DHT22;25309;48.686;9.170;2023-02-28T05:32:34;-0.60;97.80
39621;DHT22;25309;48.686;9.170;2023-02-28T05:35:01;-0.50;97.80
39621;DHT22;25309;48.686;9.170;2023-02-28T05:37:28;-0.50;97.90
39621;DHT22;25309;48.686;9.170;2023-02-28T05:39:55;-0.50;98.00
39621;DHT22;25309;48.686;9.170;2023-02-28T05:42:22;-0.50;98.00
39621;DHT22;25309;48.686;9.170;2023-02-28T05:44:48;-0.50;98.10
39621;DHT22;25309;48.686;9.170;2023-02-28T05:47:16;-0.50;98.10
39621;DHT22;25309;48.686;9.170;2023-02-28T05:49:44;-0.50;98.10
39621;DHT22;25309;48.686;9.170;2023-02-28T05:52:11;-0.50;98.10
39621;DHT22;25309;48.686;9.170;2023-02-28T05:54:38;-0.50;98.20
39621;DHT22;25309;48.686;9.170;2023-02-28T05:57:05;-0.50;98.10
39621;DHT22;25309;48.686;9.170;2023-02-28T05:59:48;-0.40;98.10
39621;DHT22;25309;48.686;9.170;2023-02-28T06:02:16;-0.40;98.10
39621;DHT22;25309;48.686;9.170;2023-02-28T06:04:45;-0.40;98.10
39621;DHT22;25309;48.686;9.170;2023-02-28T06:07:15;-0.40;98.10
39621;DHT22;25309;48.686;9.170;2023-02-28T06:09:44;-0.40;98.10
39621;DHT22;25309;48.686;9.170;2023-02-28T06:12:11;-0.50;98.10
39621;DHT22;25309;48.686;9.170;2023-02-28T06:14:37;-0.50;98.20
39621;DHT22;25309;48.686;9.170;2023-02-28T06:17:04;-0.40;98.40
39621;DHT22;25309;48.686;9.170;2023-02-28T06:19:31;-0.50;98.40
39621;DHT22;25309;48.686;9.170;2023-02-28T06:22:00;-0.50;98.30
39621;DHT22;25309;48.686;9.170;2023-02-28T06:24:27;-0.50;98.30
39621;DHT22;25309;48.686;9.170;2023-02-28T06:26:57;-0.50;98.20
39621;DHT22;25309;48.686;9.170;2023-02-28T06:29:32;-0.50;98.20
39621;DHT22;25309;48.686;9.170;2023-02-28T06:31:59;-0.50;98.20
39621;DHT22;25309;48.686;9.170;2023-02-28T06:34:26;-0.50;98.20
39621;DHT22;25309;48.686;9.170;2023-02-28T06:36:53;-0.40;98.40
39621;DHT22;25309;48.686;9.170;2023-02-28T06:39:21;-0.40;98.50
39621;DHT22;25309;48.686;9.170;2023-02-28T06:41:48;-0.40;98.50
39621;DHT22;25309;48.686;9.170;2023-02-28T06:44:22;-0.40;98.10
39621;DHT22;25309;48.686;9.170;2023-02-28T06:46:49;-0.40;98.70
39621;DHT22;25309;48.686;9.170;2023-02-28T06:49:17;-0.40;98.10
39621;DHT22;25309;48.686;9.170;2023-02-28T06:51:44;-0.30;98.00
39621;DHT22;25309;48.686;9.170;2023-02-28T06:54:14;-0.30;97.90
39621;DHT22;25309;48.686;9.170;2023-02-28T06:56:42;-0.30;97.80
39621;DHT22;25309;48.686;9.170;2023-02-28T06:59:09;-0.20;98.10
39621;DHT22;25309;48.686;9.170;2023-02-28T07:01:36;-0.20;98.20
39621;DHT22;25309;48.686;9.170;2023-02-28T07:04:04;-0.10;97.80
39621;DHT22;25309;48.686;9.170;2023-02-28T07:06:32;0.00;97.50
39621;DHT22;25309;48.686;9.170;2023-02-28T07:08:59;0.00;97.50
39621;DHT22;25309;48.686;9.170;2023-02-28T07:11:27;0.00;97.40
39621;DHT22;25309;48.686;9.170;2023-02-28T07:13:57;0.00;97.30
39621;DHT22;25309;48.686;9.170;2023-02-28T07:16:25;0.00;97.30
39621;DHT22;25309;48.686;9.170;2023-02-28T07:18:52;-0.10;97.30
39621;DHT22;25309;48.686;9.170;2023-02-28T07:21:19;-0.10;97.30
39621;DHT22;25309;48.686;9.170;2023-02-28T07:23:46;-0.10;97.40
39621;DHT22;25309;48.686;9.170;2023-02-28T07:26:15;-0.10;97.50
39621;DHT22;25309;48.686;9.170;2023-02-28T07:28:45;-0.10;97.30
39621;DHT22;25309;48.686;9.170;2023-02-28T07:31:14;-0.10;97.30
39621;DHT22;25309;48.686;9.170;2023-02-28T07:33:42;-0.10;97.20
39621;DHT22;25309;48.686;9.170;2023-02-28T07:36:11;0.00;97.20
39621;DHT22;25309;48.686;9.170;2023-02-28T07:38:42;0.00;97.10
39621;DHT22;25309;48.686;9.170;2023-02-28T07:41:13;0.00;97.10
39621;DHT22;25309;48.686;9.170;2023-02-28T07:43:41;-0.10;97.20
39621;DHT22;25309;48.686;9.170;2023-02-28T07:46:09;0.00;97.20
39621;DHT22;25309;48.686;9.170;2023-02-28T07:48:38;0.00;97.10
39621;DHT22;25309;48.686;9.170;2023-02-28T07:51:05;0.00;97.10
39621;DHT22;25309;48.686;9.170;2023-02-28T07:53:32;0.00;97.00
39621;DHT22;25309;48.686;9.170;2023-02-28T07:56:01;0.10;96.90
39621;DHT22;25309;48.686;9.170;2023-02-28T07:58:29;0.10;96.90
39621;DHT22;25309;48.686;9.170;2023-02-28T08:00:56;0.00;96.90
39621;DHT22;25309;48.686;9.170;2023-02-28T08:03:24;0.00;97.00
39621;DHT22;25309;48.686;9.170;2023-02-28T08:05:53;0.10;97.10
39621;DHT22;25309;48.686;9.170;2023-02-28T08:08:19;0.10;97.10
39621;DHT22;25309;48.686;9.170;2023-02-28T08:10:46;0.20;97.40
39621;DHT22;25309;48.686;9.170;2023-02-28T08:13:13;0.30;97.30
39621;DHT22;25309;48.686;9.170;2023-02-28T08:15:41;0.40;96.90
39621;DHT22;25309;48.686;9.170;2023-02-28T08:18:08;0.40;96.60
39621;DHT22;25309;48.686;9.170;2023-02-28T08:20:35;0.30;96.50
39621;DHT22;25309;48.686;9.170;2023-02-28T08:23:03;0.30;96.70
39621;DHT22;25309;48.686;9.170;2023-02-28T08:25:30;0.30;96.60
39621;DHT22;25309;48.686;9.170;2023-02-28T08:27:57;0.40;97.20
39621;DHT22;25309;48.686;9.170;2023-02-28T08:30:24;0.50;97.10
39621;DHT22;25309;48.686;9.170;2023-02-28T08:32:51;0.50;96.70
39621;DHT22;25309;48.686;9.170;2023-02-28T08:35:18;0.60;96.40
39621;DHT22;25309;48.686;9.170;2023-02-28T08:37:47;0.60;96.30
39621;DHT22;25309;48.686;9.170;2023-02-28T08:40:16;0.60;96.40
39621;DHT22;25309;48.686;9.170;2023-02-28T08:42:45;0.60;96.30
39621;DHT22;25309;48.686;9.170;2023-02-28T08:45:13;0.60;96.30
39621;DHT22;25309;48.686;9.170;2023-02-28T08:47:41;0.60;96.70
39621;DHT22;25309;48.686;9.170;2023-02-28T08:50:09;0.70;96.40
39621;DHT22;25309;48.686;9.170;2023-02-28T08:52:36;0.80;96.40
39621;DHT22;25309;48.686;9.170;2023-02-28T08:55:03;0.80;96.30
39621;DHT22;25309;48.686;9.170;2023-02-28T08:57:31;0.90;96.10
39621;DHT22;25309;48.686;9.170;2023-02-28T08:59:59;0.90;96.10
39621;DHT22;25309;48.686;9.170;2023-02-28T09:02:26;0.90;95.80
39621;DHT22;25309;48.686;9.170;2023-02-28T09:04:53;0.90;95.90
39621;DHT22;25309;48.686;9.170;2023-02-28T09:07:20;0.80;95.80
39621;DHT22;25309;48.686;9.170;2023-02-28T09:09:47;0.70;96.00
39621;DHT22;25309;48.686;9.170;2023-02-28T09:12:26;0.70;96.40
39621;DHT22;25309;48.686;9.170;2023-02-28T09:14:54;0.60;96.10
39621;DHT22;25309;48.686;9.170;2023-02-28T09:17:21;0.40;96.80
39621;DHT22;25309;48.686;9.170;2023-02-28T09:19:48;0.60;96.80
39621;DHT22;25309;48.686;9.170;2023-02-28T09:22:15;0.70;96.40
39621;DHT22;25309;48.686;9.170;2023-02-28T09:24:43;0.80;96.10
39621;DHT22;25309;48.686;9.170;2023-02-28T09:27:11;0.80;95.90
39621;DHT22;25309;48.686;9.170;2023-02-28T09:29:38;0.80;96.00
39621;DHT22;25309;48.686;9.170;2023-02-28T09:32:06;0.60;96.10
39621;DHT22;25309;48.686;9.170;2023-02-28T09:34:33;0.60;96.40
39621;DHT22;25309;48.686;9.170;2023-02-28T09:37:00;0.70;96.20
39621;DHT22;25309;48.686;9.170;2023-02-28T09:39:27;0.80;96.20
39621;DHT22;25309;48.686;9.170;2023-02-28T09:41:55;0.90;96.10
39621;DHT22;25309;48.686;9.170;2023-02-28T09:44:28;1.00;95.70
39621;DHT22;25309;48.686;9.170;2023-02-28T09:46:58;0.90;95.40
39621;DHT22;25309;48.686;9.170;2023-02-28T09:49:35;0.90;95.20
39621;DHT22;25309;48.686;9.170;2023-02-28T09:52:05;0.80;95.40
39621;DHT22;25309;48.686;9.170;2023-02-28T09:54:36;0.90;95.80
39621;DHT22;25309;48.686;9.170;2023-02-28T09:57:07;1.00;95.70
39621;DHT22;25309;48.686;9.170;2023-02-28T09:59:45;1.10;95.70
39621;DHT22;25309;48.686;9.170;2023-02-28T10:02:29;1.20;95.40
39621;DHT22;25309;48.686;9.170;2023-02-28T10:05:08;1.20;95.50
39621;DHT22;25309;48.686;9.170;2023-02-28T10:07:48;1.30;95.40
39621;DHT22;25309;48.686;9.170;2023-02-28T10:10:21;1.20;95.20
39621;DHT22;25309;48.686;9.170;2023-02-28T10:12:52;1.20;95.20
39621;DHT22;25309;48.686;9.170;2023-02-28T10:15:22;1.10;94.90
39621;DHT22;25309;48.686;9.170;2023-02-28T10:17:54;1.00;94.90
39621;DHT22;25309;48.686;9.170;2023-02-28T10:20:38;0.90;95.10
39621;DHT22;25309;48.686;9.170;2023-02-28T10:23:11;0.90;95.10
39621;DHT22;25309;48.686;9.170;2023-02-28T10:25:43;0.80;95.10
39621;DHT22;25309;48.686;9.170;2023-02-28T10:28:16;0.90;95.20
39621;DHT22;25309;48.686;9.170;2023-02-28T10:30:47;1.00;95.20
39621;DHT22;25309;48.686;9.170;2023-02-28T10:33:23;1.10;95.20
39621;DHT22;25309;48.686;9.170;2023-02-28T10:35:52;1.20;94.90
39621;DHT22;25309;48.686;9.170;2023-02-28T10:38:21;1.20;94.80
39621;DHT22;25309;48.686;9.170;2023-02-28T10:40:49;1.00;94.90
39621;DHT22;25309;48.686;9.170;2023-02-28T10:43:21;1.10;94.80
39621;DHT22;25309;48.686;9.170;2023-02-28T10:45:55;1.10;95.10
39621;DHT22;25309;48.686;9.170;2023-02-28T10:48:34;1.30;94.70
39621;DHT22;25309;48.686;9.170;2023-02-28T10:51:04;1.60;94.60
39621;DHT22;25309;48.686;9.170;2023-02-28T10:53:35;1.70;94.20
39621;DHT22;25309;48.686;9.170;2023-02-28T10:56:24;1.70;94.10
39621;DHT22;25309;48.686;9.170;2023-02-28T10:58:54;1.80;93.80
39621;DHT22;25309;48.686;9.170;2023-02-28T11:01:22;1.90;93.80
39621;DHT22;25309;48.686;9.170;2023-02-28T11:03:51;2.00;94.00
39621;DHT22;25309;48.686;9.170;2023-02-28T11:06:21;2.20;93.70
39621;DHT22;25309;48.686;9.170;2023-02-28T11:08:51;2.40;93.30
39621;DHT22;25309;48.686;9.170;2023-02-28T11:11:20;2.40;93.30
39621;DHT22;25309;48.686;9.170;2023-02-28T11:13:51;2.40;93.10
39621;DHT22;25309;48.686;9.170;2023-02-28T11:16:19;2.40;93.00
39621;DHT22;25309;48.686;9.170;2023-02-28T11:18:50;2.60;93.10
39621;DHT22;25309;48.686;9.170;2023-02-28T11:21:25;2.90;92.50
39621;DHT22;25309;48.686;9.170;2023-02-28T11:23:58;3.40;92.40
39621;DHT22;25309;48.686;9.170;2023-02-28T11:26:39;3.70;91.80
39621;DHT22;25309;48.686;9.170;2023-02-28T11:29:12;3.90;91.20
39621;DHT22;25309;48.686;9.170;2023-02-28T11:31:39;3.80;91.10
39621;DHT22;25309;48.686;9.170;2023-02-28T11:34:23;3.80;91.60
39621;DHT22;25309;48.686;9.170;2023-02-28T11:36:52;4.10;90.80
39621;DHT22;25309;48.686;9.170;2023-02-28T11:39:19;4.10;90.70
39621;DHT22;25309;48.686;9.170;2023-02-28T11:44:49;4.90;90.80
39621;DHT22;25309;48.686;9.170;2023-02-28T11:47:30;5.30;90.00
39621;DHT22;25309;48.686;9.170;2023-02-28T11:50:12;5.70;88.20
39621;DHT22;25309;48.686;9.170;2023-02-28T11:52:47;6.00;87.40
39621;DHT22;25309;48.686;9.170;2023-02-28T11:55:20;6.10;87.00
39621;DHT22;25309;48.686;9.170;2023-02-28T11:58:17;6.30;87.60
39621;DHT22;25309;48.686;9.170;2023-02-28T12:01:13;6.80;87.90
39621;DHT22;25309;48.686;9.170;2023-02-28T12:03:56;7.40;84.80
39621;DHT22;25309;48.686;9.170;2023-02-28T12:06:30;7.50;83.10
39621;DHT22;25309;48.686;9.170;2023-02-28T12:09:19;7.60;83.70
39621;DHT22;25309;48.686;9.170;2023-02-28T12:11:52;7.70;82.40
39621;DHT22;25309;48.686;9.170;2023-02-28T12:14:46;7.70;82.80
39621;DHT22;25309;48.686;9.170;2023-02-28T12:17:25;7.70;83.50
39621;DHT22;25309;48.686;9.170;2023-02-28T12:20:05;8.10;84.20
39621;DHT22;25309;48.686;9.170;2023-02-28T12:22:41;8.50;82.20
39621;DHT22;25309;48.686;9.170;2023-02-28T12:25:43;8.70;79.50
39621;DHT22;25309;48.686;9.170;2023-02-28T12:28:19;8.30;82.00
39621;DHT22;25309;48.686;9.170;2023-02-28T12:30:51;8.20;80.60
39621;DHT22;25309;48.686;9.170;2023-02-28T12:33:24;8.10;81.10
39621;DHT22;25309;48.686;9.170;2023-02-28T12:35:55;8.30;83.10
39621;DHT22;25309;48.686;9.170;2023-02-28T12:38:24;8.40;80.00
39621;DHT22;25309;48.686;9.170;2023-02-28T12:40:57;8.70;81.10
39621;DHT22;25309;48.686;9.170;2023-02-28T12:43:31;9.20;80.70
39621;DHT22;25309;48.686;9.170;2023-02-28T12:46:02;9.60;80.70
39621;DHT22;25309;48.686;9.170;2023-02-28T12:48:37;10.00;79.20
39621;DHT22;25309;48.686;9.170;2023-02-28T12:51:06;10.30;77.80
39621;DHT22;25309;48.686;9.170;2023-02-28T12:53:43;10.50;77.80
39621;DHT22;25309;48.686;9.170;2023-02-28T12:56:18;10.60;76.70
39621;DHT22;25309;48.686;9.170;2023-02-28T12:58:48;10.20;74.20
39621;DHT22;25309;48.686;9.170;2023-02-28T13:01:33;9.60;75.40
39621;DHT22;25309;48.686;9.170;2023-02-28T13:04:32;8.90;77.50
39621;DHT22;25309;48.686;9.170;2023-02-28T13:07:12;8.70;79.10
39621;DHT22;25309;48.686;9.170;2023-02-28T13:09:51;8.90;78.20
39621;DHT22;25309;48.686;9.170;2023-02-28T13:12:20;8.90;77.70
39621;DHT22;25309;48.686;9.170;2023-02-28T13:14:50;8.90;78.60
39621;DHT22;25309;48.686;9.170;2023-02-28T13:17:19;8.80;78.10
39621;DHT22;25309;48.686;9.170;2023-02-28T13:19:59;9.10;79.00
39621;DHT22;25309;48.686;9.170;2023-02-28T13:22:40;8.90;78.10
39621;DHT22;25309;48.686;9.170;2023-02-28T13:31:32;9.80;77.60
39621;DHT22;25309;48.686;9.170;2023-02-28T13:34:15;10.10;77.70
39621;DHT22;25309;48.686;9.170;2023-02-28T13:36:42;10.50;77.30
39621;DHT22;25309;48.686;9.170;2023-02-28T13:39:46;10.70;75.30
39621;DHT22;25309;48.686;9.170;2023-02-28T13:42:23;10.90;76.10
39621;DHT22;25309;48.686;9.170;2023-02-28T13:45:21;11.10;75.40
39621;DHT22;25309;48.686;9.170;2023-02-28T13:47:53;11.10;73.90
39621;DHT22;25309;48.686;9.170;2023-02-28T13:50:29;10.60;73.70
39621;DHT22;25309;48.686;9.170;2023-02-28T13:53:23;10.30;75.80
39621;DHT22;25309;48.686;9.170;2023-02-28T13:55:59;10.30;74.80
39621;DHT22;25309;48.686;9.170;2023-02-28T13:58:36;10.40;76.50
39621;DHT22;25309;48.686;9.170;2023-02-28T14:01:16;10.70;76.00
39621;DHT22;25309;48.686;9.170;2023-02-28T14:04:02;11.00;75.40
39621;DHT22;25309;48.686;9.170;2023-02-28T14:06:35;11.20;74.00
39621;DHT22;25309;48.686;9.170;2023-02-28T14:09:15;11.20;74.70
39621;DHT22;25309;48.686;9.170;2023-02-28T14:11:44;11.30;73.70
39621;DHT22;25309;48.686;9.170;2023-02-28T14:17:14;11.40;73.70
39621;DHT22;25309;48.686;9.170;2023-02-28T14:19:45;11.10;71.40
39621;DHT22;25309;48.686;9.170;2023-02-28T14:22:28;10.90;73.90
39621;DHT22;25309;48.686;9.170;2023-02-28T14:25:11;10.80;73.90
39621;DHT22;25309;48.686;9.170;2023-02-28T14:27:47;10.90;74.00
39621;DHT22;25309;48.686;9.170;2023-02-28T14:30:42;10.90;74.20
39621;DHT22;25309;48.686;9.170;2023-02-28T14:33:27;11.00;73.90
39621;DHT22;25309;48.686;9.170;2023-02-28T14:36:13;11.10;74.00
39621;DHT22;25309;48.686;9.170;2023-02-28T14:38:44;11.30;74.10
39621;DHT22;25309;48.686;9.170;2023-02-28T14:41:22;11.30;73.10
39621;DHT22;25309;48.686;9.170;2023-02-28T14:43:54;11.20;72.90
39621;DHT22;25309;48.686;9.170;2023-02-28T14:46:25;11.10;73.30
39621;DHT22;25309;48.686;9.170;2023-02-28T14:48:56;11.00;73.10
39621;DHT22;25309;48.686;9.170;2023-02-28T14:51:23;10.90;73.40
39621;DHT22;25309;48.686;9.170;2023-02-28T14:53:56;10.90;74.00
39621;DHT22;25309;48.686;9.170;2023-02-28T14:56:26;10.80;73.50
39621;DHT22;25309;48.686;9.170;2023-02-28T14:58:54;10.70;73.50
39621;DHT22;25309;48.686;9.170;2023-02-28T15:01:23;10.60;74.20
39621;DHT22;25309;48.686;9.170;2023-02-28T15:04:00;10.60;74.20
39621;DHT22;25309;48.686;9.170;2023-02-28T15:06:28;10.70;73.70
39621;DHT22;25309;48.686;9.170;2023-02-28T15:09:10;10.60;74.70
39621;DHT22;25309;48.686;9.170;2023-02-28T15:11:38;10.60;74.20
39621;DHT22;25309;48.686;9.170;2023-02-28T15:14:06;10.50;74.10
39621;DHT22;25309;48.686;9.170;2023-02-28T15:16:36;10.50;74.20
39621;DHT22;25309;48.686;9.170;2023-02-28T15:19:11;10.40;74.60
39621;DHT22;25309;48.686;9.170;2023-02-28T15:21:43;10.30;74.00
39621;DHT22;25309;48.686;9.170;2023-02-28T15:24:13;10.20;75.00
39621;DHT22;25309;48.686;9.170;2023-02-28T15:26:45;10.10;74.80
39621;DHT22;25309;48.686;9.170;2023-02-28T15:29:17;10.00;74.80
39621;DHT22;25309;48.686;9.170;2023-02-28T15:31:48;9.90;75.20
39621;DHT22;25309;48.686;9.170;2023-02-28T15:34:33;9.80;75.30
39621;DHT22;25309;48.686;9.170;2023-02-28T15:37:26;9.70;75.60
39621;DHT22;25309;48.686;9.170;2023-02-28T15:39:58;9.60;75.90
39621;DHT22;25309;48.686;9.170;2023-02-28T15:42:29;9.50;75.80
39621;DHT22;25309;48.686;9.170;2023-02-28T15:44:56;9.40;76.20
39621;DHT22;25309;48.686;9.170;2023-02-28T15:47:26;9.40;76.20
39621;DHT22;25309;48.686;9.170;2023-02-28T15:49:57;9.40;76.30
39621;DHT22;25309;48.686;9.170;2023-02-28T15:52:31;9.30;76.40
39621;DHT22;25309;48.686;9.170;2023-02-28T15:55:08;9.20;76.60
39621;DHT22;25309;48.686;9.170;2023-02-28T15:57:40;9.00;76.80
39621;DHT22;25309;48.686;9.170;2023-02-28T16:00:12;8.90;77.00
39621;DHT22;25309;48.686;9.170;2023-02-28T16:02:40;8.80;77.50
39621;DHT22;25309;48.686;9.170;2023-02-28T16:05:26;8.80;77.60
39621;DHT22;25309;48.686;9.170;2023-02-28T16:07:59;8.80;77.80
39621;DHT22;25309;48.686;9.170;2023-02-28T16:10:28;8.70;77.90
39621;DHT22;25309;48.686;9.170;2023-02-28T16:12:56;8.70;78.00
39621;DHT22;25309;48.686;9.170;2023-02-28T16:15:26;8.60;78.20
39621;DHT22;25309;48.686;9.170;2023-02-28T16:17:55;8.60;78.40
39621;DHT22;25309;48.686;9.170;2023-02-28T16:20:26;8.50;78.50
39621;DHT22;25309;48.686;9.170;2023-02-28T16:22:54;8.40;78.80
39621;DHT22;25309;48.686;9.170;2023-02-28T16:25:24;8.20;78.90